Pagrindinis puslapis
METAR-TAF:

METAR-TAF

Oro uostai :

Natalis, Rio Grande do Norte, Brazilija

platuma: 05-46-05S, ilguma: 035-22-34W, Aukštis: 88 m

Dabartinis oras

Ataskaita buvo paskelbta 27 minutes, ne 03:00 UTC
Vėjas 4 kt iš Pietvakarių
Temperatūra 25°C
Drėgmė 94%
Slėgis 1013 hPa
Matomumas 10 km arba daugiau
Išsisklaidę debesys ne aukštis 2000 ft

METAR: SBSG 290300Z 23004KT 9999 SCT020 25/24 Q1013

Laikas: 00:27 (03:27 UTC)

Prognozė

Ataskaita buvo paskelbta 6 valandos ir 27 minutes, ne 21:00 UTC
Prognozė galioja nuo 29 metu 00 UTC su 29 metu 24 UTC
Vėjas 7 kt iš Pietų/Pietryčių
Matomumas 10 km arba daugiau
Išsisklaidę debesys ne aukštis 2000 ft
Tikimybė 40%
nuo 29 metu 06 UTC su 29 metu 12 UTC
Su prošvaistėmis ne aukštis 1000 ft
Tapsmas
nuo 29 metu 12 UTC su 29 metu 14 UTC
Su prošvaistėmis ne aukštis 2000 ft
Tikimybė 40%
nuo 29 metu 16 UTC su 29 metu 20 UTC
Matomumas: 8000 m
lietus

TAF: SBSG 282100Z 2900/2924 16007KT 9999 SCT020 TN24/2907Z TX30/2917Z PROB40 2906/2912 BKN010 BECMG 2912/2914 BKN020 PROB40 2916/2920 8000 RA RMK PDJ

Orai ataskaitas ir orų prognozės (METAR, TAF).

turimą stotys yra geltonos ir raudonos taškus žemėlapyje.

Perkelti pele per norėdami pamatyti stoties vardą.

Tada spustelėkite, norėdami matyti oro stebėjimo ir prognozės.

Norėdami pakeisti žemėlapį: spustelėkite ant žalios mygtukų su juodo kryžiaus žemyn,; žalią mygtuką su brūkšneliu, jei norite nutolinti; arba žalių rodyklių gretimoms žemėlapius.


METAR-TAF: